sensor_id;sensor_type;location;lat;lon;timestamp;P1;durP1;ratioP1;P2;durP2;ratioP2
49101;SDS011;34913;47.520;19.186;2022-09-09T00:02:01;1.20;;;1.10;;
49101;SDS011;34913;47.520;19.186;2022-09-09T00:04:34;2.30;;;1.02;;
49101;SDS011;34913;47.520;19.186;2022-09-09T00:12:22;1.00;;;1.00;;
49101;SDS011;34913;47.520;19.186;2022-09-09T00:17:43;1.60;;;1.00;;
49101;SDS011;34913;47.520;19.186;2022-09-09T00:23:14;1.10;;;1.00;;
49101;SDS011;34913;47.520;19.186;2022-09-09T00:25:58;1.10;;;0.95;;
49101;SDS011;34913;47.520;19.186;2022-09-09T00:28:35;1.90;;;0.90;;
49101;SDS011;34913;47.520;19.186;2022-09-09T00:31:12;1.10;;;1.00;;
49101;SDS011;34913;47.520;19.186;2022-09-09T00:33:40;2.15;;;1.00;;
49101;SDS011;34913;47.520;19.186;2022-09-09T00:36:14;1.00;;;0.90;;
49101;SDS011;34913;47.520;19.186;2022-09-09T00:38:55;1.42;;;1.05;;
49101;SDS011;34913;47.520;19.186;2022-09-09T00:52:47;1.92;;;1.23;;
49101;SDS011;34913;47.520;19.186;2022-09-09T00:58:06;4.37;;;1.03;;
49101;SDS011;34913;47.520;19.186;2022-09-09T01:08:17;1.20;;;1.10;;
49101;SDS011;34913;47.520;19.186;2022-09-09T01:10:50;2.40;;;1.30;;
49101;SDS011;34913;47.520;19.186;2022-09-09T01:13:25;4.00;;;1.30;;
49101;SDS011;34913;47.520;19.186;2022-09-09T01:15:55;1.38;;;1.25;;
49101;SDS011;34913;47.520;19.186;2022-09-09T01:18:26;1.38;;;1.27;;
49101;SDS011;34913;47.520;19.186;2022-09-09T01:26:41;1.55;;;1.45;;
49101;SDS011;34913;47.520;19.186;2022-09-09T01:29:14;1.40;;;1.30;;
49101;SDS011;34913;47.520;19.186;2022-09-09T01:31:51;1.20;;;1.10;;
49101;SDS011;34913;47.520;19.186;2022-09-09T01:34:21;1.65;;;1.38;;
49101;SDS011;34913;47.520;19.186;2022-09-09T01:36:57;1.75;;;1.20;;
49101;SDS011;34913;47.520;19.186;2022-09-09T01:39:27;1.85;;;1.20;;
49101;SDS011;34913;47.520;19.186;2022-09-09T01:41:53;1.85;;;1.33;;
49101;SDS011;34913;47.520;19.186;2022-09-09T01:44:20;3.25;;;1.40;;
49101;SDS011;34913;47.520;19.186;2022-09-09T01:46:47;1.67;;;1.55;;
49101;SDS011;34913;47.520;19.186;2022-09-09T01:49:12;5.82;;;2.05;;
49101;SDS011;34913;47.520;19.186;2022-09-09T01:51:38;2.58;;;1.50;;
49101;SDS011;34913;47.520;19.186;2022-09-09T01:54:05;1.48;;;1.38;;
49101;SDS011;34913;47.520;19.186;2022-09-09T02:05:37;1.65;;;1.55;;
49101;SDS011;34913;47.520;19.186;2022-09-09T02:08:11;2.00;;;1.60;;
49101;SDS011;34913;47.520;19.186;2022-09-09T02:13:25;4.53;;;1.58;;
49101;SDS011;34913;47.520;19.186;2022-09-09T02:18:35;2.25;;;1.63;;
49101;SDS011;34913;47.520;19.186;2022-09-09T02:21:09;1.63;;;1.50;;
49101;SDS011;34913;47.520;19.186;2022-09-09T02:23:36;1.80;;;1.70;;
49101;SDS011;34913;47.520;19.186;2022-09-09T02:26:05;1.90;;;1.80;;
49101;SDS011;34913;47.520;19.186;2022-09-09T02:28:32;2.00;;;1.80;;
49101;SDS011;34913;47.520;19.186;2022-09-09T02:31:00;2.63;;;1.90;;
49101;SDS011;34913;47.520;19.186;2022-09-09T02:33:27;2.30;;;1.90;;
49101;SDS011;34913;47.520;19.186;2022-09-09T02:35:59;2.03;;;1.73;;
49101;SDS011;34913;47.520;19.186;2022-09-09T02:38:28;2.72;;;2.00;;
49101;SDS011;34913;47.520;19.186;2022-09-09T02:40:57;4.75;;;2.08;;
49101;SDS011;34913;47.520;19.186;2022-09-09T02:43:23;1.85;;;1.75;;
49101;SDS011;34913;47.520;19.186;2022-09-09T02:48:55;1.55;;;1.45;;
49101;SDS011;34913;47.520;19.186;2022-09-09T02:54:12;1.77;;;1.52;;
49101;SDS011;34913;47.520;19.186;2022-09-09T02:56:43;1.83;;;1.33;;
49101;SDS011;34913;47.520;19.186;2022-09-09T02:59:14;1.50;;;1.40;;
49101;SDS011;34913;47.520;19.186;2022-09-09T03:01:41;2.90;;;1.40;;
49101;SDS011;34913;47.520;19.186;2022-09-09T03:04:06;2.00;;;1.30;;
49101;SDS011;34913;47.520;19.186;2022-09-09T03:06:32;4.78;;;1.58;;
49101;SDS011;34913;47.520;19.186;2022-09-09T03:08:57;3.25;;;1.20;;
49101;SDS011;34913;47.520;19.186;2022-09-09T03:11:25;2.92;;;1.30;;
49101;SDS011;34913;47.520;19.186;2022-09-09T03:13:52;1.70;;;1.40;;
49101;SDS011;34913;47.520;19.186;2022-09-09T03:16:19;1.33;;;1.23;;
49101;SDS011;34913;47.520;19.186;2022-09-09T03:18:46;1.40;;;1.30;;
49101;SDS011;34913;47.520;19.186;2022-09-09T03:21:11;2.15;;;1.52;;
49101;SDS011;34913;47.520;19.186;2022-09-09T03:23:37;1.92;;;1.33;;
49101;SDS011;34913;47.520;19.186;2022-09-09T03:26:02;1.42;;;1.33;;
49101;SDS011;34913;47.520;19.186;2022-09-09T03:28:28;1.58;;;1.35;;
49101;SDS011;34913;47.520;19.186;2022-09-09T03:31:03;1.38;;;1.27;;
49101;SDS011;34913;47.520;19.186;2022-09-09T03:33:30;3.40;;;1.83;;
49101;SDS011;34913;47.520;19.186;2022-09-09T03:35:56;3.30;;;2.00;;
49101;SDS011;34913;47.520;19.186;2022-09-09T03:38:25;2.78;;;2.20;;
49101;SDS011;34913;47.520;19.186;2022-09-09T03:40:51;4.57;;;2.40;;
49101;SDS011;34913;47.520;19.186;2022-09-09T03:43:21;4.57;;;2.60;;
49101;SDS011;34913;47.520;19.186;2022-09-09T03:45:47;2.55;;;2.35;;
49101;SDS011;34913;47.520;19.186;2022-09-09T03:48:13;3.42;;;2.63;;
49101;SDS011;34913;47.520;19.186;2022-09-09T03:50:44;3.10;;;2.80;;
49101;SDS011;34913;47.520;19.186;2022-09-09T03:53:14;3.45;;;2.65;;
49101;SDS011;34913;47.520;19.186;2022-09-09T03:55:47;3.63;;;2.67;;
49101;SDS011;34913;47.520;19.186;2022-09-09T03:58:15;3.10;;;2.60;;
49101;SDS011;34913;47.520;19.186;2022-09-09T04:00:43;3.15;;;2.53;;
49101;SDS011;34913;47.520;19.186;2022-09-09T04:03:18;2.58;;;2.38;;
49101;SDS011;34913;47.520;19.186;2022-09-09T04:05:43;2.83;;;2.63;;
49101;SDS011;34913;47.520;19.186;2022-09-09T04:08:09;2.80;;;2.60;;
49101;SDS011;34913;47.520;19.186;2022-09-09T04:10:36;3.00;;;2.70;;
49101;SDS011;34913;47.520;19.186;2022-09-09T04:13:02;2.90;;;2.60;;
49101;SDS011;34913;47.520;19.186;2022-09-09T04:15:29;3.95;;;3.03;;
49101;SDS011;34913;47.520;19.186;2022-09-09T04:17:56;3.90;;;2.38;;
49101;SDS011;34913;47.520;19.186;2022-09-09T04:20:21;2.85;;;2.65;;
49101;SDS011;34913;47.520;19.186;2022-09-09T04:22:47;4.72;;;3.00;;
49101;SDS011;34913;47.520;19.186;2022-09-09T04:25:13;3.20;;;3.00;;
49101;SDS011;34913;47.520;19.186;2022-09-09T04:27:38;4.80;;;3.65;;
49101;SDS011;34913;47.520;19.186;2022-09-09T04:30:05;4.65;;;3.72;;
49101;SDS011;34913;47.520;19.186;2022-09-09T04:32:32;5.55;;;3.72;;
49101;SDS011;34913;47.520;19.186;2022-09-09T04:35:01;4.45;;;4.05;;
49101;SDS011;34913;47.520;19.186;2022-09-09T04:37:28;4.40;;;4.00;;
49101;SDS011;34913;47.520;19.186;2022-09-09T04:39:53;6.38;;;3.55;;
49101;SDS011;34913;47.520;19.186;2022-09-09T04:42:19;5.38;;;3.83;;
49101;SDS011;34913;47.520;19.186;2022-09-09T04:44:44;3.97;;;3.30;;
49101;SDS011;34913;47.520;19.186;2022-09-09T04:47:10;4.00;;;3.60;;
49101;SDS011;34913;47.520;19.186;2022-09-09T04:49:35;3.90;;;3.60;;
49101;SDS011;34913;47.520;19.186;2022-09-09T04:52:02;3.83;;;3.53;;
49101;SDS011;34913;47.520;19.186;2022-09-09T04:54:28;4.13;;;3.65;;
49101;SDS011;34913;47.520;19.186;2022-09-09T04:56:54;5.13;;;3.58;;
49101;SDS011;34913;47.520;19.186;2022-09-09T04:59:20;4.22;;;3.80;;
49101;SDS011;34913;47.520;19.186;2022-09-09T05:01:46;4.50;;;4.00;;
49101;SDS011;34913;47.520;19.186;2022-09-09T05:04:12;6.47;;;4.35;;
49101;SDS011;34913;47.520;19.186;2022-09-09T05:06:39;5.18;;;4.47;;
49101;SDS011;34913;47.520;19.186;2022-09-09T05:09:04;5.10;;;4.60;;
49101;SDS011;34913;47.520;19.186;2022-09-09T05:11:31;5.55;;;4.65;;
49101;SDS011;34913;47.520;19.186;2022-09-09T05:13:57;5.90;;;5.07;;
49101;SDS011;34913;47.520;19.186;2022-09-09T05:16:23;5.75;;;5.05;;
49101;SDS011;34913;47.520;19.186;2022-09-09T05:18:49;5.70;;;4.75;;
49101;SDS011;34913;47.520;19.186;2022-09-09T05:21:19;5.30;;;4.80;;
49101;SDS011;34913;47.520;19.186;2022-09-09T05:23:46;8.23;;;5.03;;
49101;SDS011;34913;47.520;19.186;2022-09-09T05:26:13;7.28;;;5.30;;
49101;SDS011;34913;47.520;19.186;2022-09-09T05:28:43;6.38;;;5.28;;
49101;SDS011;34913;47.520;19.186;2022-09-09T05:31:09;7.38;;;5.60;;
49101;SDS011;34913;47.520;19.186;2022-09-09T05:33:38;8.27;;;5.85;;
49101;SDS011;34913;47.520;19.186;2022-09-09T05:36:09;7.35;;;5.80;;
49101;SDS011;34913;47.520;19.186;2022-09-09T05:38:38;6.13;;;5.53;;
49101;SDS011;34913;47.520;19.186;2022-09-09T05:41:04;5.88;;;5.28;;
49101;SDS011;34913;47.520;19.186;2022-09-09T05:43:30;6.65;;;5.45;;
49101;SDS011;34913;47.520;19.186;2022-09-09T05:48:30;7.80;;;4.55;;
49101;SDS011;34913;47.520;19.186;2022-09-09T05:50:57;5.65;;;4.68;;
49101;SDS011;34913;47.520;19.186;2022-09-09T05:53:24;5.22;;;4.65;;
49101;SDS011;34913;47.520;19.186;2022-09-09T05:55:57;6.55;;;4.65;;
49101;SDS011;34913;47.520;19.186;2022-09-09T05:58:43;5.30;;;4.80;;
49101;SDS011;34913;47.520;19.186;2022-09-09T06:01:10;4.93;;;4.45;;
49101;SDS011;34913;47.520;19.186;2022-09-09T06:03:38;8.68;;;4.60;;
49101;SDS011;34913;47.520;19.186;2022-09-09T06:06:05;4.90;;;4.40;;
49101;SDS011;34913;47.520;19.186;2022-09-09T06:08:33;5.10;;;3.80;;
49101;SDS011;34913;47.520;19.186;2022-09-09T06:11:03;5.38;;;4.05;;
49101;SDS011;34913;47.520;19.186;2022-09-09T06:13:29;6.38;;;3.80;;
49101;SDS011;34913;47.520;19.186;2022-09-09T06:15:55;13.73;;;4.03;;
49101;SDS011;34913;47.520;19.186;2022-09-09T06:18:21;5.55;;;3.70;;
49101;SDS011;34913;47.520;19.186;2022-09-09T06:20:56;4.30;;;3.70;;
49101;SDS011;34913;47.520;19.186;2022-09-09T06:23:23;3.30;;;3.00;;
49101;SDS011;34913;47.520;19.186;2022-09-09T06:25:48;4.25;;;3.00;;
49101;SDS011;34913;47.520;19.186;2022-09-09T06:28:15;3.17;;;2.20;;
49101;SDS011;34913;47.520;19.186;2022-09-09T06:30:41;3.65;;;2.60;;
49101;SDS011;34913;47.520;19.186;2022-09-09T06:33:06;4.38;;;3.00;;
49101;SDS011;34913;47.520;19.186;2022-09-09T06:35:32;5.68;;;3.10;;
49101;SDS011;34913;47.520;19.186;2022-09-09T06:37:57;3.80;;;3.42;;
49101;SDS011;34913;47.520;19.186;2022-09-09T06:40:23;4.57;;;3.55;;
49101;SDS011;34913;47.520;19.186;2022-09-09T06:42:49;4.75;;;3.80;;
49101;SDS011;34913;47.520;19.186;2022-09-09T06:45:14;3.85;;;3.45;;
49101;SDS011;34913;47.520;19.186;2022-09-09T06:47:40;3.88;;;3.30;;
49101;SDS011;34913;47.520;19.186;2022-09-09T06:50:06;2.72;;;2.53;;
49101;SDS011;34913;47.520;19.186;2022-09-09T06:52:32;3.78;;;2.72;;
49101;SDS011;34913;47.520;19.186;2022-09-09T06:54:58;3.22;;;2.92;;
49101;SDS011;34913;47.520;19.186;2022-09-09T06:57:24;4.32;;;3.00;;
49101;SDS011;34913;47.520;19.186;2022-09-09T06:59:49;3.05;;;2.20;;
49101;SDS011;34913;47.520;19.186;2022-09-09T07:02:15;4.70;;;1.85;;
49101;SDS011;34913;47.520;19.186;2022-09-09T07:04:41;3.15;;;2.00;;
49101;SDS011;34913;47.520;19.186;2022-09-09T07:07:06;4.13;;;1.83;;
49101;SDS011;34913;47.520;19.186;2022-09-09T07:09:33;2.38;;;1.73;;
49101;SDS011;34913;47.520;19.186;2022-09-09T07:11:59;2.13;;;1.92;;
49101;SDS011;34913;47.520;19.186;2022-09-09T07:14:24;1.88;;;1.70;;
49101;SDS011;34913;47.520;19.186;2022-09-09T07:16:50;2.58;;;1.65;;
49101;SDS011;34913;47.520;19.186;2022-09-09T07:19:15;1.67;;;1.58;;
49101;SDS011;34913;47.520;19.186;2022-09-09T07:21:42;2.97;;;1.70;;
49101;SDS011;34913;47.520;19.186;2022-09-09T07:24:07;3.13;;;2.22;;
49101;SDS011;34913;47.520;19.186;2022-09-09T07:26:35;2.78;;;2.00;;
49101;SDS011;34913;47.520;19.186;2022-09-09T07:29:01;2.88;;;2.20;;
49101;SDS011;34913;47.520;19.186;2022-09-09T07:31:28;3.03;;;1.80;;
49101;SDS011;34913;47.520;19.186;2022-09-09T07:33:56;1.75;;;1.50;;
49101;SDS011;34913;47.520;19.186;2022-09-09T07:36:23;2.08;;;1.80;;
49101;SDS011;34913;47.520;19.186;2022-09-09T07:38:52;2.30;;;1.70;;
49101;SDS011;34913;47.520;19.186;2022-09-09T07:41:30;2.20;;;1.60;;
49101;SDS011;34913;47.520;19.186;2022-09-09T07:44:06;3.47;;;1.90;;
49101;SDS011;34913;47.520;19.186;2022-09-09T07:49:06;6.10;;;1.50;;
49101;SDS011;34913;47.520;19.186;2022-09-09T07:51:34;3.42;;;1.60;;
49101;SDS011;34913;47.520;19.186;2022-09-09T07:54:03;2.53;;;1.52;;
49101;SDS011;34913;47.520;19.186;2022-09-09T07:56:30;2.33;;;1.50;;
49101;SDS011;34913;47.520;19.186;2022-09-09T07:58:57;1.80;;;1.35;;
49101;SDS011;34913;47.520;19.186;2022-09-09T08:03:57;2.35;;;1.38;;
49101;SDS011;34913;47.520;19.186;2022-09-09T08:06:30;6.70;;;1.60;;
49101;SDS011;34913;47.520;19.186;2022-09-09T08:09:00;2.38;;;1.20;;
49101;SDS011;34913;47.520;19.186;2022-09-09T08:11:27;1.27;;;1.17;;
49101;SDS011;34913;47.520;19.186;2022-09-09T08:13:53;3.88;;;1.20;;
49101;SDS011;34913;47.520;19.186;2022-09-09T08:16:21;2.38;;;1.20;;
49101;SDS011;34913;47.520;19.186;2022-09-09T08:18:50;2.63;;;1.30;;
49101;SDS011;34913;47.520;19.186;2022-09-09T08:21:20;1.90;;;0.98;;
49101;SDS011;34913;47.520;19.186;2022-09-09T08:23:49;3.35;;;1.10;;
49101;SDS011;34913;47.520;19.186;2022-09-09T08:26:38;1.20;;;1.10;;
49101;SDS011;34913;47.520;19.186;2022-09-09T08:29:04;2.53;;;1.20;;
49101;SDS011;34913;47.520;19.186;2022-09-09T08:31:39;2.13;;;0.90;;
49101;SDS011;34913;47.520;19.186;2022-09-09T08:34:07;3.40;;;1.10;;
49101;SDS011;34913;47.520;19.186;2022-09-09T08:36:35;1.08;;;0.98;;
49101;SDS011;34913;47.520;19.186;2022-09-09T08:39:03;1.90;;;1.27;;
49101;SDS011;34913;47.520;19.186;2022-09-09T08:52:41;0.95;;;0.95;;
49101;SDS011;34913;47.520;19.186;2022-09-09T08:58:17;2.28;;;0.80;;
49101;SDS011;34913;47.520;19.186;2022-09-09T09:01:11;2.63;;;1.08;;
49101;SDS011;34913;47.520;19.186;2022-09-09T09:06:35;3.00;;;1.10;;
49101;SDS011;34913;47.520;19.186;2022-09-09T09:09:28;1.30;;;1.20;;
49101;SDS011;34913;47.520;19.186;2022-09-09T09:12:10;1.17;;;0.80;;
49101;SDS011;34913;47.520;19.186;2022-09-09T09:14:43;2.50;;;1.17;;
49101;SDS011;34913;47.520;19.186;2022-09-09T09:17:13;3.42;;;0.80;;
49101;SDS011;34913;47.520;19.186;2022-09-09T09:19:40;2.20;;;1.00;;
49101;SDS011;34913;47.520;19.186;2022-09-09T09:22:16;0.70;;;0.70;;
49101;SDS011;34913;47.520;19.186;2022-09-09T09:25:04;1.45;;;0.80;;
49101;SDS011;34913;47.520;19.186;2022-09-09T09:30:27;1.45;;;1.00;;
49101;SDS011;34913;47.520;19.186;2022-09-09T09:33:01;1.05;;;0.80;;
49101;SDS011;34913;47.520;19.186;2022-09-09T09:35:31;1.08;;;0.80;;
49101;SDS011;34913;47.520;19.186;2022-09-09T09:37:56;0.85;;;0.80;;
49101;SDS011;34913;47.520;19.186;2022-09-09T09:40:22;0.82;;;0.80;;
49101;SDS011;34913;47.520;19.186;2022-09-09T09:42:52;1.83;;;0.75;;
49101;SDS011;34913;47.520;19.186;2022-09-09T09:47:58;0.70;;;0.70;;
49101;SDS011;34913;47.520;19.186;2022-09-09T09:50:28;1.80;;;0.83;;
49101;SDS011;34913;47.520;19.186;2022-09-09T09:52:55;1.67;;;0.70;;
49101;SDS011;34913;47.520;19.186;2022-09-09T09:55:22;0.85;;;0.80;;
49101;SDS011;34913;47.520;19.186;2022-09-09T09:57:49;3.00;;;1.00;;
49101;SDS011;34913;47.520;19.186;2022-09-09T10:00:16;1.98;;;0.80;;
49101;SDS011;34913;47.520;19.186;2022-09-09T10:02:45;1.67;;;0.60;;
49101;SDS011;34913;47.520;19.186;2022-09-09T10:05:30;0.80;;;0.68;;
49101;SDS011;34913;47.520;19.186;2022-09-09T10:13:27;1.33;;;0.82;;
49101;SDS011;34913;47.520;19.186;2022-09-09T10:21:31;0.77;;;0.77;;
49101;SDS011;34913;47.520;19.186;2022-09-09T10:40:44;1.45;;;0.90;;
49101;SDS011;34913;47.520;19.186;2022-09-09T10:49:20;1.15;;;0.90;;
49101;SDS011;34913;47.520;19.186;2022-09-09T10:52:05;1.08;;;0.90;;
49101;SDS011;34913;47.520;19.186;2022-09-09T11:00:05;1.15;;;0.80;;
49101;SDS011;34913;47.520;19.186;2022-09-09T11:02:39;1.17;;;0.77;;
49101;SDS011;34913;47.520;19.186;2022-09-09T11:07:41;2.65;;;0.90;;
49101;SDS011;34913;47.520;19.186;2022-09-09T11:10:21;3.33;;;0.70;;
49101;SDS011;34913;47.520;19.186;2022-09-09T11:12:56;1.90;;;0.65;;
49101;SDS011;34913;47.520;19.186;2022-09-09T11:15:35;2.05;;;0.90;;
49101;SDS011;34913;47.520;19.186;2022-09-09T11:18:06;0.70;;;0.70;;
49101;SDS011;34913;47.520;19.186;2022-09-09T11:20:35;1.25;;;0.70;;
49101;SDS011;34913;47.520;19.186;2022-09-09T11:23:05;1.00;;;0.70;;
49101;SDS011;34913;47.520;19.186;2022-09-09T11:25:45;1.05;;;0.70;;
49101;SDS011;34913;47.520;19.186;2022-09-09T11:42:05;0.68;;;0.60;;
49101;SDS011;34913;47.520;19.186;2022-09-09T11:44:37;0.82;;;0.70;;
49101;SDS011;34913;47.520;19.186;2022-09-09T11:47:03;0.50;;;0.50;;
49101;SDS011;34913;47.520;19.186;2022-09-09T11:49:29;0.98;;;0.63;;
49101;SDS011;34913;47.520;19.186;2022-09-09T11:55:28;0.90;;;0.50;;
49101;SDS011;34913;47.520;19.186;2022-09-09T11:57:58;1.02;;;0.70;;
49101;SDS011;34913;47.520;19.186;2022-09-09T12:00:33;0.70;;;0.70;;
49101;SDS011;34913;47.520;19.186;2022-09-09T12:03:05;1.23;;;0.80;;
49101;SDS011;34913;47.520;19.186;2022-09-09T12:05:51;1.30;;;0.90;;
49101;SDS011;34913;47.520;19.186;2022-09-09T12:08:20;1.77;;;1.00;;
49101;SDS011;34913;47.520;19.186;2022-09-09T12:10:55;1.33;;;0.80;;
49101;SDS011;34913;47.520;19.186;2022-09-09T12:13:23;0.82;;;0.68;;
49101;SDS011;34913;47.520;19.186;2022-09-09T12:15:51;2.00;;;0.70;;
49101;SDS011;34913;47.520;19.186;2022-09-09T12:18:22;0.93;;;0.75;;
49101;SDS011;34913;47.520;19.186;2022-09-09T12:23:30;1.38;;;0.70;;
49101;SDS011;34913;47.520;19.186;2022-09-09T12:33:55;1.90;;;0.90;;
49101;SDS011;34913;47.520;19.186;2022-09-09T12:36:34;1.27;;;0.70;;
49101;SDS011;34913;47.520;19.186;2022-09-09T12:39:09;1.75;;;0.88;;
49101;SDS011;34913;47.520;19.186;2022-09-09T12:41:53;1.15;;;0.80;;
49101;SDS011;34913;47.520;19.186;2022-09-09T12:44:21;1.65;;;0.80;;
49101;SDS011;34913;47.520;19.186;2022-09-09T12:46:48;1.25;;;0.90;;
49101;SDS011;34913;47.520;19.186;2022-09-09T12:49:36;1.17;;;0.80;;
49101;SDS011;34913;47.520;19.186;2022-09-09T12:52:06;0.80;;;0.80;;
49101;SDS011;34913;47.520;19.186;2022-09-09T12:54:38;0.60;;;0.60;;
49101;SDS011;34913;47.520;19.186;2022-09-09T12:57:12;2.45;;;0.70;;
49101;SDS011;34913;47.520;19.186;2022-09-09T12:59:40;0.70;;;0.70;;
49101;SDS011;34913;47.520;19.186;2022-09-09T13:05:43;1.13;;;0.70;;
49101;SDS011;34913;47.520;19.186;2022-09-09T13:08:08;1.95;;;0.80;;
49101;SDS011;34913;47.520;19.186;2022-09-09T13:10:40;0.85;;;0.70;;
49101;SDS011;34913;47.520;19.186;2022-09-09T13:13:19;0.77;;;0.70;;
49101;SDS011;34913;47.520;19.186;2022-09-09T13:15:52;2.38;;;0.70;;
49101;SDS011;34913;47.520;19.186;2022-09-09T13:18:24;1.73;;;0.80;;
49101;SDS011;34913;47.520;19.186;2022-09-09T13:20:52;2.60;;;0.70;;
49101;SDS011;34913;47.520;19.186;2022-09-09T13:23:19;0.68;;;0.68;;
49101;SDS011;34913;47.520;19.186;2022-09-09T13:25:55;1.95;;;0.88;;
49101;SDS011;34913;47.520;19.186;2022-09-09T13:28:26;1.40;;;0.80;;
49101;SDS011;34913;47.520;19.186;2022-09-09T13:31:01;0.93;;;0.70;;
49101;SDS011;34913;47.520;19.186;2022-09-09T13:33:37;1.38;;;0.60;;
49101;SDS011;34913;47.520;19.186;2022-09-09T13:36:04;1.35;;;0.63;;
49101;SDS011;34913;47.520;19.186;2022-09-09T13:38:40;0.60;;;0.60;;
49101;SDS011;34913;47.520;19.186;2022-09-09T13:41:25;0.73;;;0.60;;
49101;SDS011;34913;47.520;19.186;2022-09-09T13:44:00;1.02;;;0.68;;
49101;SDS011;34913;47.520;19.186;2022-09-09T13:51:37;1.10;;;0.70;;
49101;SDS011;34913;47.520;19.186;2022-09-09T13:54:08;1.75;;;0.93;;
49101;SDS011;34913;47.520;19.186;2022-09-09T13:56:35;1.45;;;0.70;;
49101;SDS011;34913;47.520;19.186;2022-09-09T13:59:04;0.70;;;0.70;;
49101;SDS011;34913;47.520;19.186;2022-09-09T14:01:31;2.90;;;0.70;;
49101;SDS011;34913;47.520;19.186;2022-09-09T14:03:58;0.80;;;0.70;;
49101;SDS011;34913;47.520;19.186;2022-09-09T14:06:23;0.75;;;0.75;;
49101;SDS011;34913;47.520;19.186;2022-09-09T14:08:49;0.80;;;0.70;;
49101;SDS011;34913;47.520;19.186;2022-09-09T14:11:16;0.95;;;0.80;;
49101;SDS011;34913;47.520;19.186;2022-09-09T14:13:42;0.80;;;0.80;;
49101;SDS011;34913;47.520;19.186;2022-09-09T14:16:07;2.72;;;0.95;;
49101;SDS011;34913;47.520;19.186;2022-09-09T14:18:33;1.45;;;0.82;;
49101;SDS011;34913;47.520;19.186;2022-09-09T14:20:59;3.55;;;0.90;;
49101;SDS011;34913;47.520;19.186;2022-09-09T14:23:24;0.73;;;0.70;;
49101;SDS011;34913;47.520;19.186;2022-09-09T14:25:50;0.95;;;0.80;;
49101;SDS011;34913;47.520;19.186;2022-09-09T14:28:16;1.02;;;0.80;;
49101;SDS011;34913;47.520;19.186;2022-09-09T14:30:42;1.13;;;0.80;;
49101;SDS011;34913;47.520;19.186;2022-09-09T14:33:10;1.48;;;0.85;;
49101;SDS011;34913;47.520;19.186;2022-09-09T14:35:37;1.05;;;0.73;;
49101;SDS011;34913;47.520;19.186;2022-09-09T14:38:04;0.98;;;0.70;;
49101;SDS011;34913;47.520;19.186;2022-09-09T14:40:30;0.75;;;0.70;;
49101;SDS011;34913;47.520;19.186;2022-09-09T14:42:56;0.90;;;0.80;;
49101;SDS011;34913;47.520;19.186;2022-09-09T14:45:22;2.00;;;1.02;;
49101;SDS011;34913;47.520;19.186;2022-09-09T14:47:49;1.13;;;0.80;;
49101;SDS011;34913;47.520;19.186;2022-09-09T14:50:16;1.90;;;0.80;;
49101;SDS011;34913;47.520;19.186;2022-09-09T14:52:41;1.75;;;0.70;;
49101;SDS011;34913;47.520;19.186;2022-09-09T14:55:07;1.00;;;0.90;;
49101;SDS011;34913;47.520;19.186;2022-09-09T14:57:33;0.70;;;0.70;;
49101;SDS011;34913;47.520;19.186;2022-09-09T15:00:00;2.08;;;0.80;;
49101;SDS011;34913;47.520;19.186;2022-09-09T15:02:26;0.90;;;0.90;;
49101;SDS011;34913;47.520;19.186;2022-09-09T15:04:52;1.35;;;1.25;;
49101;SDS011;34913;47.520;19.186;2022-09-09T15:07:18;1.40;;;1.20;;
49101;SDS011;34913;47.520;19.186;2022-09-09T15:09:44;1.10;;;1.00;;
49101;SDS011;34913;47.520;19.186;2022-09-09T15:12:12;2.05;;;0.90;;
49101;SDS011;34913;47.520;19.186;2022-09-09T15:14:38;0.90;;;0.80;;
49101;SDS011;34913;47.520;19.186;2022-09-09T15:17:03;1.08;;;0.80;;
49101;SDS011;34913;47.520;19.186;2022-09-09T15:19:29;1.55;;;0.93;;
49101;SDS011;34913;47.520;19.186;2022-09-09T15:21:54;1.88;;;0.80;;
49101;SDS011;34913;47.520;19.186;2022-09-09T15:24:20;0.82;;;0.73;;
49101;SDS011;34913;47.520;19.186;2022-09-09T15:26:45;2.58;;;0.80;;
49101;SDS011;34913;47.520;19.186;2022-09-09T15:29:11;0.70;;;0.60;;
49101;SDS011;34913;47.520;19.186;2022-09-09T15:31:37;1.25;;;0.90;;
49101;SDS011;34913;47.520;19.186;2022-09-09T15:34:04;4.45;;;0.90;;
49101;SDS011;34913;47.520;19.186;2022-09-09T15:36:32;1.42;;;0.88;;
49101;SDS011;34913;47.520;19.186;2022-09-09T15:39:02;1.08;;;0.70;;
49101;SDS011;34913;47.520;19.186;2022-09-09T15:41:30;2.30;;;0.80;;
49101;SDS011;34913;47.520;19.186;2022-09-09T15:43:59;1.63;;;0.90;;
49101;SDS011;34913;47.520;19.186;2022-09-09T15:49:10;2.35;;;0.80;;
49101;SDS011;34913;47.520;19.186;2022-09-09T15:51:39;1.85;;;0.77;;
49101;SDS011;34913;47.520;19.186;2022-09-09T15:54:06;2.22;;;0.80;;
49101;SDS011;34913;47.520;19.186;2022-09-09T15:56:32;1.67;;;1.08;;
49101;SDS011;34913;47.520;19.186;2022-09-09T15:59:01;2.65;;;0.90;;
49101;SDS011;34913;47.520;19.186;2022-09-09T16:01:28;2.13;;;0.80;;
49101;SDS011;34913;47.520;19.186;2022-09-09T16:03:55;1.67;;;1.00;;
49101;SDS011;34913;47.520;19.186;2022-09-09T16:06:22;0.70;;;0.70;;
49101;SDS011;34913;47.520;19.186;2022-09-09T16:08:49;0.93;;;0.77;;
49101;SDS011;34913;47.520;19.186;2022-09-09T16:11:17;0.90;;;0.80;;
49101;SDS011;34913;47.520;19.186;2022-09-09T16:13:46;2.75;;;0.80;;
49101;SDS011;34913;47.520;19.186;2022-09-09T16:16:14;2.85;;;0.82;;
49101;SDS011;34913;47.520;19.186;2022-09-09T16:18:44;1.00;;;0.93;;
49101;SDS011;34913;47.520;19.186;2022-09-09T16:21:14;1.95;;;1.00;;
49101;SDS011;34913;47.520;19.186;2022-09-09T16:23:42;0.98;;;0.80;;
49101;SDS011;34913;47.520;19.186;2022-09-09T16:26:09;1.40;;;0.70;;
49101;SDS011;34913;47.520;19.186;2022-09-09T16:28:36;1.00;;;0.90;;
49101;SDS011;34913;47.520;19.186;2022-09-09T16:31:05;1.35;;;0.88;;
49101;SDS011;34913;47.520;19.186;2022-09-09T16:33:32;1.33;;;0.80;;
49101;SDS011;34913;47.520;19.186;2022-09-09T16:35:57;0.82;;;0.80;;
49101;SDS011;34913;47.520;19.186;2022-09-09T16:38:23;1.20;;;1.10;;
49101;SDS011;34913;47.520;19.186;2022-09-09T16:40:49;1.75;;;0.95;;
49101;SDS011;34913;47.520;19.186;2022-09-09T16:43:15;1.67;;;1.00;;
49101;SDS011;34913;47.520;19.186;2022-09-09T16:45:44;1.00;;;0.90;;
49101;SDS011;34913;47.520;19.186;2022-09-09T16:48:10;1.67;;;0.95;;
49101;SDS011;34913;47.520;19.186;2022-09-09T16:50:36;1.17;;;0.90;;
49101;SDS011;34913;47.520;19.186;2022-09-09T16:53:03;1.98;;;1.10;;
49101;SDS011;34913;47.520;19.186;2022-09-09T16:55:31;1.60;;;1.15;;
49101;SDS011;34913;47.520;19.186;2022-09-09T16:57:57;1.85;;;0.98;;
49101;SDS011;34913;47.520;19.186;2022-09-09T17:00:22;2.33;;;1.10;;
49101;SDS011;34913;47.520;19.186;2022-09-09T17:02:48;2.35;;;0.90;;
49101;SDS011;34913;47.520;19.186;2022-09-09T17:05:13;1.33;;;1.10;;
49101;SDS011;34913;47.520;19.186;2022-09-09T17:07:42;1.10;;;1.00;;
49101;SDS011;34913;47.520;19.186;2022-09-09T17:10:09;1.75;;;1.20;;
49101;SDS011;34913;47.520;19.186;2022-09-09T17:12:34;1.88;;;1.42;;
49101;SDS011;34913;47.520;19.186;2022-09-09T17:15:00;5.32;;;1.55;;
49101;SDS011;34913;47.520;19.186;2022-09-09T17:17:28;4.00;;;1.77;;
49101;SDS011;34913;47.520;19.186;2022-09-09T17:19:53;2.38;;;1.42;;
49101;SDS011;34913;47.520;19.186;2022-09-09T17:22:19;6.80;;;1.50;;
49101;SDS011;34913;47.520;19.186;2022-09-09T17:24:45;2.75;;;1.40;;
49101;SDS011;34913;47.520;19.186;2022-09-09T17:27:11;3.08;;;1.40;;
49101;SDS011;34913;47.520;19.186;2022-09-09T17:29:37;1.83;;;1.10;;
49101;SDS011;34913;47.520;19.186;2022-09-09T17:32:03;2.78;;;1.40;;
49101;SDS011;34913;47.520;19.186;2022-09-09T17:34:33;1.65;;;1.25;;